Alleyton, Texas
Current Conditions -  °F | °C
As of 11:15 AM on Sunday 23 Nov 2014 (Local Time) from K66R Reporting Station
Clear Clear  
Wind Chill: 72°   Ceiling: Unl
Heat Index: 72°   Visibility: 10mi
Dew Point: 57°   Wind: 10mph
Humidity: 59%   Direction: 230°SW
Pressure: 29.66"   Gusts: 17mph
Location:  29.71°N, 96.49°W
Report Text: K66R 231715Z AUTO 23009G15KT 10SM CLR 22/14 A2966 RMK AO2 T02220139
Loading
Personal Weather Stations






























Interactive Weather Map New forecast layout! Learn more

10-Day Weather Forecast

Advertisements
Track Severe Weather on mobile